»·PEaware :: N390DT KSMX-KCMA

N390DT :: KSMX-KCMA

FLIGHT INFORMATION

Flight Status: Arrived
Operator: Privately registered:
United States
More flights under this callsign
Pilot: Raphael S. (13144)
Aircraft: CESSNA 172 SKYHAWK
(C172)
More flights by this aircraft type
Origin: KSMX Santa Maria Pub/Capt Hancock
United States
Destination: KCMA Camarillo
United States
More flights between these airports :: More routes between these airports
Route:
File this flight plan on PilotEdge
Remarks:
Altitude:
(Current/Filed)
5,500ft
Speed:
(Current/Filed)
100kts
Departed: 07-Oct-17 07:46 PM
Arrived: 07-Oct-17 08:38 PM
Distance/Time
Traveled:
79nm/0:52
Distance/Time
To Go:
Arrived

Flight Plot

Page will automatically refresh every two minutes.

Flight plan parsing failed; only flown route is shown


Map Options




Map Legend


Flown Route
Filed Route
Departure Airport
Arrival Airport
Navaid (VOR, NDB)
Fix

Horizontal Profiles

Position Reports

Time Latitude Longitude Heading Altitude Ground
Speed
07-Oct-17 19:36 34.896397 -120.445446 314 265ft 0kts
07-Oct-17 19:37 34.896397 -120.445446 314 265ft 0kts
07-Oct-17 19:38 34.896397 -120.445446 314 265ft 0kts
07-Oct-17 19:39 34.896397 -120.445446 314 265ft 0kts
07-Oct-17 19:40 34.896397 -120.445446 314 265ft 0kts
07-Oct-17 19:41 34.896478 -120.445606 279 265ft 0kts
07-Oct-17 19:42 34.896480 -120.445634 275 265ft 0kts
07-Oct-17 19:43 34.896480 -120.445634 275 265ft 0kts
07-Oct-17 19:44 34.895598 -120.445329 135 265ft 7kts
07-Oct-17 19:45 34.894170 -120.444928 166 265ft 4kts
07-Oct-17 19:46 34.893160 -120.444950 179 265ft 0kts
07-Oct-17 19:47 34.893160 -120.444950 179 265ft 0kts
07-Oct-17 19:48 34.893160 -120.444950 179 265ft 0kts
07-Oct-17 19:49 34.892860 -120.445851 312 265ft 0kts
07-Oct-17 19:50 34.903227 -120.458378 315 679ft 74kts
07-Oct-17 19:51 34.899101 -120.471507 149 1453ft 86kts
07-Oct-17 19:52 34.881454 -120.455563 137 2064ft 86kts
07-Oct-17 19:53 34.865734 -120.435236 138 2654ft 88kts
07-Oct-17 19:54 34.848012 -120.418659 142 3182ft 90kts
07-Oct-17 19:55 34.833075 -120.404648 157 3558ft 95kts
07-Oct-17 19:56 34.810320 -120.390398 139 4061ft 96kts
07-Oct-17 19:57 34.791781 -120.367964 136 4544ft 97kts
07-Oct-17 19:58 34.773229 -120.345201 136 5025ft 98kts
07-Oct-17 19:59 34.754308 -120.322565 146 5481ft 97kts
07-Oct-17 20:00 34.729217 -120.303611 155 5484ft 117kts
07-Oct-17 20:01 34.700563 -120.287789 164 5427ft 115kts
07-Oct-17 20:02 34.670633 -120.277630 153 5408ft 116kts
07-Oct-17 20:03 34.649519 -120.250659 136 5478ft 116kts
07-Oct-17 20:04 34.629399 -120.222529 112 5469ft 119kts
07-Oct-17 20:05 34.619329 -120.188484 127 5475ft 118kts
07-Oct-17 20:06 34.595735 -120.164700 136 5526ft 114kts
07-Oct-17 20:07 34.578446 -120.134155 124 5572ft 113kts
07-Oct-17 20:08 34.560219 -120.104925 123 5591ft 115kts
07-Oct-17 20:09 34.544242 -120.072586 123 5609ft 115kts
07-Oct-17 20:10 34.530194 -120.038780 121 5563ft 117kts
07-Oct-17 20:11 34.513423 -120.005800 124 5474ft 115kts
07-Oct-17 20:12 34.496142 -119.974622 124 5381ft 115kts
07-Oct-17 20:13 34.484426 -119.940318 101 5312ft 114kts
07-Oct-17 20:14 34.471505 -119.907565 112 5421ft 105kts
07-Oct-17 20:15 34.457216 -119.876066 119 5483ft 111kts
07-Oct-17 20:16 34.443785 -119.843636 112 5585ft 110kts
07-Oct-17 20:17 34.431015 -119.810827 114 5630ft 112kts
07-Oct-17 20:18 34.421353 -119.774693 101 5491ft 118kts
07-Oct-17 20:19 34.416288 -119.737179 95 5373ft 116kts
07-Oct-17 20:20 34.412391 -119.700426 95 5369ft 110kts
07-Oct-17 20:21 34.407554 -119.664890 96 5453ft 110kts
07-Oct-17 20:22 34.401120 -119.629572 103 5526ft 110kts
07-Oct-17 20:23 34.393040 -119.594336 112 5609ft 112kts
07-Oct-17 20:24 34.379907 -119.560385 113 5606ft 115kts
07-Oct-17 20:25 34.367250 -119.525760 108 5582ft 115kts
07-Oct-17 20:26 34.350347 -119.493530 129 5552ft 116kts
07-Oct-17 20:27 34.333536 -119.461776 110 5526ft 115kts
07-Oct-17 20:28 34.321683 -119.426842 102 5503ft 114kts
07-Oct-17 20:29 34.310402 -119.392146 110 5242ft 116kts
07-Oct-17 20:30 34.297187 -119.357290 113 4885ft 115kts
07-Oct-17 20:31 34.286442 -119.325926 110 4595ft 114kts
07-Oct-17 20:32 34.276139 -119.294106 105 4225ft 113kts
07-Oct-17 20:33 34.274479 -119.286078 102 4128ft 111kts
07-Oct-17 20:34 34.270033 -119.270014 107 3899ft 112kts
07-Oct-17 20:35 34.260046 -119.235582 109 3435ft 112kts
07-Oct-17 20:36 34.247597 -119.202295 118 3015ft 112kts
07-Oct-17 20:37 34.235246 -119.169532 118 2551ft 110kts
07-Oct-17 20:38 34.227693 -119.134630 97 1931ft 106kts
07-Oct-17 20:39 34.223133 -119.100868 98 1460ft 104kts
07-Oct-17 20:40 34.217423 -119.067647 121 832ft 103kts
07-Oct-17 20:41 34.210208 -119.077504 316 432ft 77kts
07-Oct-17 20:42 34.213547 -119.094944 222 81ft 20kts
07-Oct-17 20:43 34.212952 -119.095576 203 81ft 0kts
07-Oct-17 20:44 34.211063 -119.094346 72 81ft 5kts
07-Oct-17 20:45 34.210978 -119.090049 89 81ft 15kts
07-Oct-17 20:46 34.210888 -119.084863 105 81ft 13kts
07-Oct-17 20:47 34.210432 -119.084058 89 81ft 0kts
07-Oct-17 20:48 34.210432 -119.084058 89 81ft 0kts
07-Oct-17 20:49 34.210432 -119.084058 89 81ft 0kts
07-Oct-17 20:50 34.210432 -119.084058 89 81ft 0kts
07-Oct-17 20:51 34.210432 -119.084058 89 81ft 0kts
07-Oct-17 20:52 34.210432 -119.084058 89 81ft 0kts
07-Oct-17 20:53 34.210432 -119.084058 89 81ft 0kts
07-Oct-17 20:54 34.210432 -119.084058 89 81ft 0kts
07-Oct-17 20:55 34.210432 -119.084058 89 81ft 0kts
07-Oct-17 20:56 34.210432 -119.084058 89 81ft 0kts

Navigation Log

Ident Type
Flight plan parsing failed, navigation log unavailable